createdAt,value
2022-10-28T00:01:21.350Z,29.92
2022-10-28T00:03:57.490Z,29.92
2022-10-28T00:06:31.789Z,29.93
2022-10-28T00:09:08.246Z,29.94
2022-10-28T00:11:41.875Z,29.94
2022-10-28T00:14:14.102Z,29.97
2022-10-28T00:16:46.140Z,29.97
2022-10-28T00:19:17.062Z,29.95
2022-10-28T00:21:47.822Z,29.93
2022-10-28T00:24:18.563Z,29.91
2022-10-28T00:26:50.092Z,29.90
2022-10-28T00:29:22.483Z,29.89
2022-10-28T00:31:54.782Z,29.87
2022-10-28T00:34:24.854Z,29.84
2022-10-28T00:36:55.176Z,29.83
2022-10-28T00:39:28.114Z,29.79
2022-10-28T00:42:04.008Z,29.76
2022-10-28T00:45:01.473Z,29.74
2022-10-28T00:47:43.268Z,29.72
2022-10-28T00:50:30.282Z,29.73
2022-10-28T00:53:05.551Z,29.73
2022-10-28T00:55:39.958Z,29.75
2022-10-28T00:58:13.144Z,29.75
2022-10-28T01:00:43.703Z,29.77
2022-10-28T01:03:15.769Z,29.79
2022-10-28T01:05:50.388Z,29.79
2022-10-28T01:08:23.649Z,29.78
2022-10-28T01:11:23.017Z,29.76
2022-10-28T01:14:22.403Z,29.74
2022-10-28T01:17:22.789Z,29.72
2022-10-28T01:20:53.296Z,29.69
2022-10-28T01:23:35.689Z,29.68
2022-10-28T01:27:03.584Z,29.65
2022-10-28T01:30:10.144Z,29.64
2022-10-28T01:33:04.466Z,29.64
2022-10-28T01:35:46.006Z,29.65
2022-10-28T01:38:37.044Z,29.65
2022-10-28T01:41:17.488Z,29.66
2022-10-28T01:43:57.718Z,29.65
2022-10-28T01:46:37.504Z,29.65
2022-10-28T01:49:21.571Z,29.62
2022-10-28T01:51:58.058Z,29.59
2022-10-28T01:54:33.911Z,29.54
2022-10-28T01:57:08.531Z,29.51
2022-10-28T01:59:43.013Z,29.48
2022-10-28T02:02:13.567Z,29.46
2022-10-28T02:04:45.789Z,29.46
2022-10-28T02:07:17.483Z,29.45
2022-10-28T02:10:09.817Z,29.44
2022-10-28T02:12:41.959Z,29.41
2022-10-28T02:15:45.152Z,29.37
2022-10-28T02:18:33.888Z,29.32
2022-10-28T02:21:14.872Z,29.27
2022-10-28T02:23:56.227Z,29.25
2022-10-28T02:26:37.356Z,29.22
2022-10-28T02:29:25.386Z,29.20
2022-10-28T02:32:00.970Z,29.17
2022-10-28T02:34:38.104Z,29.16
2022-10-28T02:37:18.689Z,29.16
2022-10-28T02:39:55.138Z,29.16
2022-10-28T02:42:30.484Z,29.14
2022-10-28T02:45:08.963Z,29.16
2022-10-28T02:47:50.389Z,29.16
2022-10-28T02:50:28.590Z,29.17
2022-10-28T02:53:04.751Z,29.18
2022-10-28T02:55:43.360Z,29.20
2022-10-28T02:58:14.391Z,29.21
2022-10-28T03:00:50.371Z,29.24
2022-10-28T03:03:20.954Z,29.23
2022-10-28T03:05:50.886Z,29.24
2022-10-28T03:08:25.302Z,29.27
2022-10-28T03:10:55.156Z,29.26
2022-10-28T03:13:25.623Z,29.26
2022-10-28T03:15:56.094Z,29.25
2022-10-28T03:18:26.555Z,29.24
2022-10-28T03:20:59.166Z,29.23
2022-10-28T03:23:31.335Z,29.20
2022-10-28T03:26:01.538Z,29.19
2022-10-28T03:28:32.033Z,29.18
2022-10-28T03:31:02.514Z,29.16
2022-10-28T03:33:33.032Z,29.14
2022-10-28T03:36:03.335Z,29.13
2022-10-28T03:38:35.883Z,29.13
2022-10-28T03:41:05.675Z,29.14
2022-10-28T03:43:37.308Z,29.13
2022-10-28T03:46:08.226Z,29.11
2022-10-28T03:48:38.465Z,29.08
2022-10-28T03:51:09.775Z,29.06
2022-10-28T03:53:41.467Z,29.05
2022-10-28T03:56:13.846Z,29.04
2022-10-28T03:58:44.384Z,29.05
2022-10-28T04:01:14.740Z,29.03
2022-10-28T04:03:45.111Z,29.03
2022-10-28T04:06:15.365Z,29.03
2022-10-28T04:08:47.529Z,29.04
2022-10-28T04:11:18.080Z,29.04
2022-10-28T04:13:48.527Z,29.05
2022-10-28T04:16:18.362Z,29.03
2022-10-28T04:18:48.405Z,29.01
2022-10-28T04:21:18.433Z,29.00
2022-10-28T04:23:50.307Z,29.00
2022-10-28T04:26:22.856Z,28.98
2022-10-28T04:28:53.219Z,28.96
2022-10-28T04:31:23.883Z,28.95
2022-10-28T04:33:54.214Z,28.93
2022-10-28T04:36:24.638Z,28.92
2022-10-28T04:38:57.287Z,28.92
2022-10-28T04:41:27.507Z,28.90
2022-10-28T04:43:58.028Z,28.92
2022-10-28T04:46:27.697Z,28.93
2022-10-28T04:48:57.552Z,28.97
2022-10-28T04:51:28.357Z,29.04
2022-10-28T04:54:00.200Z,29.08
2022-10-28T04:56:31.507Z,29.15
2022-10-28T04:59:02.053Z,29.22
2022-10-28T05:01:32.615Z,29.31
2022-10-28T05:04:02.547Z,29.39
2022-10-28T05:06:33.866Z,29.49
2022-10-28T05:09:06.503Z,29.57
2022-10-28T05:11:37.045Z,29.65
2022-10-28T05:14:07.517Z,29.72
2022-10-28T05:16:37.819Z,29.78
2022-10-28T05:19:08.434Z,29.86
2022-10-28T05:21:38.872Z,29.95
2022-10-28T05:24:12.363Z,30.09
2022-10-28T05:26:44.074Z,30.24
2022-10-28T05:29:14.485Z,30.35
2022-10-28T05:31:44.970Z,30.50
2022-10-28T05:34:15.324Z,30.63
2022-10-28T05:36:46.163Z,30.75
2022-10-28T05:39:18.517Z,30.86
2022-10-28T05:41:49.246Z,30.98
2022-10-28T05:44:19.359Z,31.08
2022-10-28T05:46:49.836Z,31.18
2022-10-28T05:49:20.826Z,31.32
2022-10-28T05:51:50.874Z,31.42
2022-10-28T05:54:22.586Z,31.56
2022-10-28T05:56:53.101Z,31.70
2022-10-28T05:59:26.858Z,31.85
2022-10-28T06:02:00.994Z,31.99
2022-10-28T06:04:31.841Z,32.13
2022-10-28T06:07:02.309Z,32.26
2022-10-28T06:09:34.701Z,32.36
2022-10-28T06:12:03.798Z,32.47
2022-10-28T06:14:34.442Z,32.61
2022-10-28T06:17:04.707Z,32.72
2022-10-28T06:19:35.803Z,32.82
2022-10-28T06:22:06.434Z,32.93
2022-10-28T06:24:39.127Z,33.04
2022-10-28T06:27:09.768Z,33.13
2022-10-28T06:29:40.388Z,33.21
2022-10-28T06:32:12.786Z,33.28
2022-10-28T06:34:42.908Z,33.36
2022-10-28T06:37:13.470Z,33.46
2022-10-28T06:39:50.195Z,33.54
2022-10-28T06:42:21.051Z,33.62
2022-10-28T06:44:51.560Z,33.70
2022-10-28T06:47:23.522Z,33.78
2022-10-28T06:49:54.033Z,33.86
2022-10-28T06:52:24.767Z,33.95
2022-10-28T06:54:57.640Z,34.03
2022-10-28T06:57:29.327Z,34.09
2022-10-28T07:00:00.483Z,34.17
2022-10-28T07:02:31.853Z,34.19
2022-10-28T07:05:02.686Z,34.20
2022-10-28T07:07:33.725Z,34.26
2022-10-28T07:10:06.563Z,34.31
2022-10-28T07:12:37.920Z,34.38
2022-10-28T07:15:10.067Z,34.46
2022-10-28T07:17:41.594Z,34.51
2022-10-28T07:20:14.109Z,34.58
2022-10-28T07:22:44.252Z,34.65
2022-10-28T07:25:16.413Z,34.73
2022-10-28T07:27:46.969Z,34.79
2022-10-28T07:30:17.569Z,34.86
2022-10-28T07:32:48.465Z,34.92
2022-10-28T07:35:19.288Z,34.98
2022-10-28T07:37:50.215Z,35.05
2022-10-28T07:40:23.820Z,35.09
2022-10-28T07:42:54.704Z,35.14
2022-10-28T07:45:25.127Z,35.21
2022-10-28T07:47:55.810Z,35.29
2022-10-28T07:50:26.543Z,35.37
2022-10-28T07:52:58.169Z,35.44
2022-10-28T07:55:30.687Z,35.52
2022-10-28T07:58:01.964Z,35.59
2022-10-28T08:00:32.786Z,35.64
2022-10-28T08:03:05.239Z,35.71
2022-10-28T08:05:35.924Z,35.77
2022-10-28T08:08:06.517Z,35.84
2022-10-28T08:10:39.929Z,35.90
2022-10-28T08:13:11.479Z,35.92
2022-10-28T08:15:42.042Z,35.93
2022-10-28T08:18:12.105Z,35.94
2022-10-28T08:20:42.769Z,35.96
2022-10-28T08:23:12.939Z,35.99
2022-10-28T08:25:51.181Z,35.99
2022-10-28T08:28:22.111Z,35.98
2022-10-28T08:31:04.242Z,35.98
2022-10-28T08:33:39.488Z,35.96
2022-10-28T08:36:12.221Z,35.91
2022-10-28T08:38:45.590Z,35.86
2022-10-28T08:41:38.449Z,35.84
2022-10-28T08:44:37.134Z,35.82
2022-10-28T08:47:26.550Z,35.80
2022-10-28T08:50:04.569Z,35.77
2022-10-28T08:52:44.050Z,35.71
2022-10-28T08:55:22.662Z,35.64
2022-10-28T08:58:00.101Z,35.60
2022-10-28T09:00:34.805Z,35.57
2022-10-28T09:03:23.179Z,35.53
2022-10-28T09:06:03.749Z,35.48
2022-10-28T09:15:22.890Z,35.29
2022-10-28T09:17:58.701Z,35.24
2022-10-28T09:20:50.821Z,35.21
2022-10-28T09:23:27.231Z,35.17
2022-10-28T09:29:28.504Z,35.06
2022-10-28T09:35:08.901Z,34.95
2022-10-28T09:37:44.242Z,34.93
2022-10-28T09:40:22.455Z,34.90
2022-10-28T09:43:03.750Z,34.85
2022-10-28T09:45:38.652Z,34.75
2022-10-28T09:51:24.026Z,34.64
2022-10-28T09:54:00.626Z,34.61
2022-10-28T09:56:33.900Z,34.57
2022-10-28T09:59:05.738Z,34.53
2022-10-28T10:04:31.796Z,34.40
2022-10-28T10:12:36.710Z,34.20
2022-10-28T10:18:05.428Z,34.04
2022-10-28T10:20:53.330Z,34.01
2022-10-28T10:23:32.837Z,33.98
2022-10-28T10:26:11.104Z,33.94
2022-10-28T10:28:48.814Z,33.92
2022-10-28T10:31:25.327Z,33.86
2022-10-28T10:33:58.377Z,33.81
2022-10-28T10:36:31.899Z,33.77
2022-10-28T10:39:05.540Z,33.74
2022-10-28T10:41:41.538Z,33.73
2022-10-28T10:44:37.665Z,33.68
2022-10-28T10:47:35.986Z,33.62
2022-10-28T10:53:38.161Z,33.48
2022-10-28T11:01:54.283Z,33.30
2022-10-28T11:04:28.997Z,33.26
2022-10-28T11:07:01.287Z,33.23
2022-10-28T11:09:39.029Z,33.23
2022-10-28T11:12:18.717Z,33.17
2022-10-28T11:15:00.157Z,33.15
2022-10-28T11:20:31.476Z,33.08
2022-10-28T11:23:26.806Z,33.04
2022-10-28T11:26:07.663Z,33.02
2022-10-28T11:32:21.905Z,32.97
2022-10-28T11:38:46.540Z,32.90
2022-10-28T11:41:44.862Z,32.87
2022-10-28T11:44:35.236Z,32.83
2022-10-28T11:47:32.159Z,32.81
2022-10-28T11:50:37.462Z,32.79
2022-10-28T11:53:50.283Z,32.76
2022-10-28T11:56:34.725Z,32.74
2022-10-28T11:59:50.214Z,32.72
2022-10-28T12:02:47.082Z,32.72
2022-10-28T12:05:29.149Z,32.70
2022-10-28T12:08:21.836Z,32.68
2022-10-28T12:11:18.479Z,32.66
2022-10-28T12:13:59.919Z,32.63
2022-10-28T12:19:41.950Z,32.56
2022-10-28T12:22:22.724Z,32.55
2022-10-28T12:24:56.045Z,32.56
2022-10-28T12:27:32.837Z,32.54
2022-10-28T12:30:11.904Z,32.53
2022-10-28T12:32:48.228Z,32.51
2022-10-28T12:35:27.102Z,32.49
2022-10-28T12:38:08.653Z,32.48
2022-10-28T12:40:47.681Z,32.46
2022-10-28T12:43:26.372Z,32.46
2022-10-28T12:46:00.908Z,32.47
2022-10-28T12:48:42.630Z,32.47
2022-10-28T12:51:20.016Z,32.43
2022-10-28T12:54:00.999Z,32.41
2022-10-28T12:56:40.329Z,32.41
2022-10-28T12:59:19.815Z,32.40
2022-10-28T13:04:43.113Z,32.42
2022-10-28T13:11:25.025Z,32.38
2022-10-28T13:14:05.053Z,32.36
2022-10-28T13:17:04.227Z,32.35
2022-10-28T13:23:16.400Z,32.30
2022-10-28T13:26:10.273Z,32.29
2022-10-28T13:28:49.892Z,32.28
2022-10-28T13:31:22.037Z,32.27
2022-10-28T13:33:58.573Z,32.24
2022-10-28T13:36:35.934Z,32.18
2022-10-28T13:39:25.223Z,32.16
2022-10-28T13:42:46.884Z,32.09
2022-10-28T13:45:53.914Z,32.03
2022-10-28T13:48:49.798Z,32.02
2022-10-28T13:55:00.068Z,32.01
2022-10-28T13:57:38.881Z,32.00
2022-10-28T14:00:38.771Z,31.97
2022-10-28T14:06:09.442Z,31.94
2022-10-28T14:08:44.756Z,31.96
2022-10-28T14:11:26.139Z,31.97
2022-10-28T14:14:01.962Z,31.94
2022-10-28T14:19:26.759Z,31.90
2022-10-28T14:24:50.997Z,31.85
2022-10-28T14:27:54.072Z,31.84
2022-10-28T14:33:27.368Z,31.78
2022-10-28T14:36:27.999Z,31.77
2022-10-28T14:39:39.416Z,31.73
2022-10-28T14:42:48.035Z,31.71
2022-10-28T14:45:32.403Z,31.72
2022-10-28T14:48:59.402Z,31.71
2022-10-28T14:51:43.021Z,31.71
2022-10-28T14:54:22.959Z,31.71
2022-10-28T15:02:40.869Z,31.72
2022-10-28T15:05:20.744Z,31.75
2022-10-28T15:10:47.278Z,31.76
2022-10-28T15:16:08.919Z,31.74
2022-10-28T15:18:39.457Z,31.75
2022-10-28T15:21:16.390Z,31.75
2022-10-28T15:26:36.303Z,31.74
2022-10-28T15:29:07.066Z,31.74
2022-10-28T15:31:57.872Z,31.73
2022-10-28T15:34:32.776Z,31.71
2022-10-28T15:37:05.768Z,31.70
2022-10-28T15:39:42.129Z,31.72
2022-10-28T15:42:42.526Z,31.70
2022-10-28T15:48:22.883Z,31.71
2022-10-28T15:51:15.830Z,31.72
2022-10-28T15:53:47.687Z,31.73
2022-10-28T15:56:26.606Z,31.74
2022-10-28T15:59:20.369Z,31.73
2022-10-28T16:01:51.052Z,31.71
2022-10-28T16:04:47.505Z,31.70
2022-10-28T16:07:18.861Z,31.69
2022-10-28T16:09:52.557Z,31.69
2022-10-28T16:12:29.217Z,31.69
2022-10-28T16:15:04.754Z,31.69
2022-10-28T16:17:43.848Z,31.69
2022-10-28T16:20:19.524Z,31.67
2022-10-28T16:22:53.821Z,31.67
2022-10-28T16:25:25.297Z,31.66
2022-10-28T16:30:47.129Z,31.64
2022-10-28T16:33:17.667Z,31.64
2022-10-28T16:35:49.127Z,31.64
2022-10-28T16:38:20.018Z,31.65
2022-10-28T16:40:52.538Z,31.64
2022-10-28T16:43:35.162Z,31.63
2022-10-28T16:46:06.843Z,31.61
2022-10-28T16:54:14.681Z,31.59
2022-10-28T16:56:47.936Z,31.59
2022-10-28T16:59:27.822Z,31.59
2022-10-28T17:02:05.304Z,31.58
2022-10-28T17:04:40.569Z,31.58
2022-10-28T17:07:20.561Z,31.56
2022-10-28T17:09:54.498Z,31.58
2022-10-28T17:12:30.270Z,31.56
2022-10-28T17:15:06.753Z,31.56
2022-10-28T17:17:38.956Z,31.56
2022-10-28T17:20:11.654Z,31.56
2022-10-28T17:22:43.221Z,31.54
2022-10-28T17:25:13.677Z,31.54
2022-10-28T17:27:49.109Z,31.53
2022-10-28T17:30:24.289Z,31.53
2022-10-28T17:32:58.169Z,31.54
2022-10-28T17:35:29.564Z,31.53
2022-10-28T17:38:01.851Z,31.51
2022-10-28T17:40:33.573Z,31.51
2022-10-28T17:46:07.086Z,31.48
2022-10-28T17:48:40.405Z,31.47
2022-10-28T17:54:01.366Z,31.45
2022-10-28T17:56:33.613Z,31.45
2022-10-28T18:01:58.568Z,31.41
2022-10-28T18:04:32.806Z,31.41
2022-10-28T18:07:04.484Z,31.40
2022-10-28T18:09:36.109Z,31.38
2022-10-28T18:12:07.551Z,31.36
2022-10-28T18:14:41.785Z,31.34
2022-10-28T18:17:17.876Z,31.33
2022-10-28T18:19:49.939Z,31.32
2022-10-28T18:25:13.064Z,31.27
2022-10-28T18:27:44.375Z,31.26
2022-10-28T18:33:19.237Z,31.21
2022-10-28T18:35:51.794Z,31.20
2022-10-28T18:38:25.065Z,31.21
2022-10-28T18:40:57.041Z,31.22
2022-10-28T18:43:29.538Z,31.23
2022-10-28T18:46:06.080Z,31.23
2022-10-28T18:48:39.747Z,31.24
2022-10-28T18:51:13.922Z,31.25
2022-10-28T18:53:46.611Z,31.25
2022-10-28T18:59:09.347Z,31.25
2022-10-28T19:04:36.621Z,31.25
2022-10-28T19:07:09.294Z,31.24
2022-10-28T19:09:41.408Z,31.25
2022-10-28T19:15:01.730Z,31.21
2022-10-28T19:17:32.273Z,31.20
2022-10-28T19:20:06.001Z,31.21
2022-10-28T19:22:39.195Z,31.19
2022-10-28T19:25:12.699Z,31.19
2022-10-28T19:27:44.979Z,31.18
2022-10-28T19:30:17.219Z,31.17
2022-10-28T19:32:49.034Z,31.16
2022-10-28T19:35:25.135Z,31.15
2022-10-28T19:40:44.486Z,31.12
2022-10-28T19:46:13.663Z,31.09
2022-10-28T19:51:40.078Z,31.06
2022-10-28T19:54:14.859Z,31.06
2022-10-28T19:56:47.904Z,31.05
2022-10-28T19:59:18.352Z,31.05
2022-10-28T20:01:49.576Z,31.05
2022-10-28T20:04:22.441Z,31.05
2022-10-28T20:06:59.148Z,31.06
2022-10-28T20:09:29.493Z,31.03
2022-10-28T20:12:02.318Z,31.01
2022-10-28T20:17:21.427Z,30.96
2022-10-28T20:19:51.503Z,30.93
2022-10-28T20:22:23.284Z,30.92
2022-10-28T20:24:53.939Z,30.91
2022-10-28T20:27:24.499Z,30.90
2022-10-28T20:32:42.930Z,30.86
2022-10-28T20:35:13.777Z,30.86
2022-10-28T20:37:45.889Z,30.86
2022-10-28T20:40:16.765Z,30.85
2022-10-28T20:48:22.151Z,30.77
2022-10-28T20:50:55.112Z,30.76
2022-10-28T20:53:31.595Z,30.75
2022-10-28T20:56:02.191Z,30.73
2022-10-28T20:58:35.860Z,30.72
2022-10-28T21:01:09.615Z,30.71
2022-10-28T21:03:40.547Z,30.69
2022-10-28T21:08:49.294Z,30.66
2022-10-28T21:11:20.843Z,30.65
2022-10-28T21:13:53.816Z,30.64
2022-10-28T21:16:25.248Z,30.63
2022-10-28T21:18:56.392Z,30.62
2022-10-28T21:21:28.229Z,30.61
2022-10-28T21:24:00.802Z,30.59
2022-10-28T21:26:31.261Z,30.57
2022-10-28T21:29:01.779Z,30.54
2022-10-28T21:31:31.907Z,30.54
2022-10-28T21:36:49.601Z,30.49
2022-10-28T21:39:21.632Z,30.47
2022-10-28T21:41:52.247Z,30.47
2022-10-28T21:44:22.978Z,30.47
2022-10-28T21:46:55.085Z,30.45
2022-10-28T21:49:25.218Z,30.44
2022-10-28T21:51:55.824Z,30.43
2022-10-28T21:54:27.676Z,30.42
2022-10-28T21:56:57.475Z,30.39
2022-10-28T22:02:15.335Z,30.34
2022-10-28T22:04:46.359Z,30.34
2022-10-28T22:07:17.818Z,30.34
2022-10-28T22:09:49.672Z,30.35
2022-10-28T22:12:19.553Z,30.34
2022-10-28T22:17:38.506Z,30.32
2022-10-28T22:20:11.313Z,30.33
2022-10-28T22:25:31.137Z,30.33
2022-10-28T22:28:01.189Z,30.33
2022-10-28T22:30:32.117Z,30.32
2022-10-28T22:33:02.933Z,30.32
2022-10-28T22:35:33.037Z,30.31
2022-10-28T22:38:03.078Z,30.29
2022-10-28T22:40:35.329Z,30.28
2022-10-28T22:43:05.074Z,30.28
2022-10-28T22:45:35.519Z,30.28
2022-10-28T22:50:53.158Z,30.26
2022-10-28T22:53:24.198Z,30.27
2022-10-28T22:55:57.284Z,30.26
2022-10-28T22:58:29.809Z,30.26
2022-10-28T23:01:09.892Z,30.25
2022-10-28T23:06:30.748Z,30.21
2022-10-28T23:14:37.307Z,30.18
2022-10-28T23:17:08.350Z,30.17
2022-10-28T23:19:38.881Z,30.16
2022-10-28T23:22:09.515Z,30.15
2022-10-28T23:24:40.402Z,30.13
2022-10-28T23:27:12.832Z,30.11
2022-10-28T23:29:43.552Z,30.08
2022-10-28T23:32:13.684Z,30.07
2022-10-28T23:34:43.644Z,30.07
2022-10-28T23:37:13.659Z,30.05
2022-10-28T23:45:20.684Z,29.96
2022-10-28T23:47:51.159Z,29.95
2022-10-28T23:50:21.008Z,29.94
2022-10-28T23:52:57.727Z,29.94
2022-10-28T23:55:28.462Z,29.93
2022-10-28T23:58:01.380Z,29.92
